createdAt,value
2022-12-04T00:01:30.046Z,24.40
2022-12-04T00:04:03.655Z,24.23
2022-12-04T00:06:31.648Z,24.85
2022-12-04T00:08:58.887Z,20.50
2022-12-04T00:11:29.990Z,25.13
2022-12-04T00:14:06.879Z,21.58
2022-12-04T00:16:34.200Z,26.10
2022-12-04T00:19:03.610Z,23.88
2022-12-04T00:21:31.661Z,25.55
2022-12-04T00:23:59.082Z,24.20
2022-12-04T00:26:28.967Z,25.92
2022-12-04T00:28:57.417Z,27.13
2022-12-04T00:31:28.780Z,23.27
2022-12-04T00:33:57.702Z,26.58
2022-12-04T00:36:28.677Z,25.17
2022-12-04T00:38:59.079Z,27.15
2022-12-04T00:41:29.305Z,27.13
2022-12-04T00:43:57.670Z,24.30
2022-12-04T00:46:24.519Z,26.60
2022-12-04T00:48:53.884Z,23.38
2022-12-04T00:51:24.075Z,25.20
2022-12-04T00:53:54.201Z,25.05
2022-12-04T00:56:28.675Z,24.50
2022-12-04T00:58:59.724Z,26.50
2022-12-04T01:01:28.989Z,24.92
2022-12-04T01:03:58.521Z,25.85
2022-12-04T01:06:34.353Z,26.00
2022-12-04T01:09:04.799Z,27.48
2022-12-04T01:11:33.725Z,25.48
2022-12-04T01:14:01.305Z,22.10
2022-12-04T01:16:35.017Z,27.05
2022-12-04T01:19:08.874Z,26.60
2022-12-04T01:21:38.642Z,21.67
2022-12-04T01:24:08.993Z,25.90
2022-12-04T01:26:37.659Z,23.92
2022-12-04T01:29:05.045Z,23.27
2022-12-04T01:31:34.446Z,24.33
2022-12-04T01:34:01.704Z,23.23
2022-12-04T01:36:29.280Z,22.48
2022-12-04T01:38:58.559Z,24.45
2022-12-04T01:41:29.273Z,27.20
2022-12-04T01:44:17.537Z,25.30
2022-12-04T01:46:59.692Z,26.02
2022-12-04T01:49:48.569Z,27.33
2022-12-04T01:52:24.625Z,25.20
2022-12-04T01:54:58.631Z,23.30
2022-12-04T01:57:32.818Z,26.02
2022-12-04T02:00:04.891Z,23.92
2022-12-04T02:02:38.855Z,23.42
2022-12-04T02:05:22.336Z,24.35
2022-12-04T02:07:58.786Z,21.67
2022-12-04T02:10:39.963Z,24.05
2022-12-04T02:13:14.245Z,20.92
2022-12-04T02:16:19.606Z,24.60
2022-12-04T02:19:13.093Z,25.27
2022-12-04T02:21:49.799Z,20.73
2022-12-04T02:24:28.617Z,24.95
2022-12-04T02:27:03.094Z,23.58
2022-12-04T02:29:48.699Z,25.70
2022-12-04T02:32:17.720Z,19.98
2022-12-04T02:34:54.433Z,20.23
2022-12-04T02:37:37.915Z,22.88
2022-12-04T02:40:19.136Z,24.48
2022-12-04T02:42:54.117Z,21.75
2022-12-04T02:45:28.241Z,23.42
2022-12-04T02:47:58.809Z,23.77
2022-12-04T02:50:27.929Z,27.00
2022-12-04T02:53:09.026Z,20.15
2022-12-04T02:55:43.347Z,22.83
2022-12-04T02:58:18.837Z,23.60
2022-12-04T03:00:49.000Z,20.42
2022-12-04T03:03:23.187Z,19.38
2022-12-04T03:06:13.279Z,22.25
2022-12-04T03:08:48.866Z,25.38
2022-12-04T03:11:17.718Z,23.30
2022-12-04T03:13:57.899Z,23.88
2022-12-04T03:16:33.300Z,24.75
2022-12-04T03:19:26.782Z,24.38
2022-12-04T03:22:00.347Z,24.80
2022-12-04T03:24:38.873Z,25.80
2022-12-04T03:27:38.695Z,20.88
2022-12-04T03:30:19.198Z,20.15
2022-12-04T03:32:52.459Z,23.67
2022-12-04T03:35:28.373Z,21.13
2022-12-04T03:38:14.377Z,25.58
2022-12-04T03:40:58.881Z,24.58
2022-12-04T03:43:39.025Z,21.67
2022-12-04T03:46:12.789Z,21.27
2022-12-04T03:48:48.930Z,25.00
2022-12-04T03:51:23.246Z,23.23
2022-12-04T03:53:49.747Z,25.20
2022-12-04T03:56:23.132Z,19.75
2022-12-04T03:58:57.603Z,20.27
2022-12-04T04:01:33.562Z,23.40
2022-12-04T04:04:04.329Z,23.60
2022-12-04T04:06:52.362Z,22.98
2022-12-04T04:09:32.612Z,24.98
2022-12-04T04:12:09.009Z,23.67
2022-12-04T04:15:04.425Z,25.05
2022-12-04T04:17:53.437Z,24.98
2022-12-04T04:20:48.572Z,23.15
2022-12-04T04:23:39.893Z,22.90
2022-12-04T04:26:09.880Z,24.17
2022-12-04T04:28:47.312Z,24.52
2022-12-04T04:31:30.017Z,21.85
2022-12-04T04:34:07.619Z,22.00
2022-12-04T04:36:49.940Z,22.65
2022-12-04T04:39:53.556Z,21.10
2022-12-04T04:42:28.465Z,25.77
2022-12-04T04:45:08.275Z,20.33
2022-12-04T04:47:44.492Z,24.23
2022-12-04T04:50:17.479Z,24.67
2022-12-04T04:52:58.633Z,24.80
2022-12-04T04:55:27.252Z,27.00
2022-12-04T04:57:54.223Z,21.38
2022-12-04T05:00:23.084Z,26.42
2022-12-04T05:02:50.557Z,23.60
2022-12-04T05:05:19.077Z,22.58
2022-12-04T05:07:47.047Z,26.60
2022-12-04T05:10:19.224Z,28.25
2022-12-04T05:12:46.849Z,24.35
2022-12-04T05:15:13.580Z,28.45
2022-12-04T05:17:40.435Z,25.40
2022-12-04T05:20:13.557Z,22.73
2022-12-04T05:22:41.878Z,27.25
2022-12-04T05:25:18.137Z,30.60
2022-12-04T05:27:44.763Z,29.88
2022-12-04T05:30:13.764Z,24.95
2022-12-04T05:32:42.374Z,26.38
2022-12-04T05:35:11.609Z,27.77
2022-12-04T05:37:42.375Z,28.30
2022-12-04T05:40:09.917Z,25.00
2022-12-04T05:42:38.994Z,25.33
2022-12-04T05:45:08.824Z,29.95
2022-12-04T05:47:44.531Z,26.17
2022-12-04T05:50:14.095Z,29.00
2022-12-04T05:52:42.318Z,26.27
2022-12-04T05:55:09.498Z,27.23
2022-12-04T05:57:37.934Z,29.33
2022-12-04T06:00:08.938Z,26.17
2022-12-04T06:02:39.134Z,28.25
2022-12-04T06:05:07.537Z,29.33
2022-12-04T06:07:34.161Z,23.63
2022-12-04T06:10:03.555Z,27.25
2022-12-04T06:12:31.577Z,26.88
2022-12-04T06:14:58.924Z,26.35
2022-12-04T06:17:27.229Z,27.42
2022-12-04T06:19:57.922Z,27.92
2022-12-04T06:22:27.875Z,25.58
2022-12-04T06:24:54.479Z,31.98
2022-12-04T06:27:28.296Z,25.40
2022-12-04T06:29:58.128Z,25.63
2022-12-04T06:32:25.348Z,23.70
2022-12-04T06:34:58.078Z,27.35
2022-12-04T06:37:26.998Z,25.42
2022-12-04T06:39:53.880Z,25.77
2022-12-04T06:42:23.759Z,28.27
2022-12-04T06:44:52.087Z,27.17
2022-12-04T06:47:19.002Z,22.15
2022-12-04T06:49:49.353Z,24.08
2022-12-04T06:52:18.129Z,28.40
2022-12-04T06:54:44.797Z,25.25
2022-12-04T06:57:13.759Z,29.27
2022-12-04T06:59:43.503Z,27.38
2022-12-04T07:02:12.498Z,25.02
2022-12-04T07:04:39.497Z,25.60
2022-12-04T07:07:13.231Z,25.60
2022-12-04T07:09:39.719Z,26.00
2022-12-04T07:12:09.572Z,26.05
2022-12-04T07:14:39.341Z,30.08
2022-12-04T07:17:15.062Z,27.27
2022-12-04T07:19:48.905Z,25.63
2022-12-04T07:22:37.970Z,30.58
2022-12-04T07:25:08.798Z,30.38
2022-12-04T07:27:37.923Z,31.38
2022-12-04T07:30:15.808Z,23.75
2022-12-04T07:32:44.741Z,28.45
2022-12-04T07:35:13.779Z,25.48
2022-12-04T07:37:41.782Z,25.85
2022-12-04T07:40:09.188Z,26.60
2022-12-04T07:42:36.782Z,25.55
2022-12-04T07:45:05.585Z,27.73
2022-12-04T07:47:37.556Z,25.83
2022-12-04T07:50:07.343Z,26.77
2022-12-04T07:52:41.876Z,31.38
2022-12-04T07:55:09.500Z,28.83
2022-12-04T07:57:38.573Z,27.30
2022-12-04T08:00:12.367Z,28.45
2022-12-04T08:02:39.393Z,26.98
2022-12-04T08:05:07.314Z,27.35
2022-12-04T08:07:34.097Z,25.88
2022-12-04T08:10:03.996Z,27.83
2022-12-04T08:12:33.597Z,24.83
2022-12-04T08:15:01.326Z,25.33
2022-12-04T08:17:38.814Z,32.25
2022-12-04T08:20:32.449Z,28.40
2022-12-04T08:22:59.063Z,26.33
2022-12-04T08:25:38.911Z,27.67
2022-12-04T08:28:07.872Z,25.35
2022-12-04T08:30:37.258Z,27.40
2022-12-04T08:33:04.396Z,27.33
2022-12-04T08:35:32.427Z,30.25
2022-12-04T08:37:58.958Z,25.08
2022-12-04T08:40:27.011Z,28.33
2022-12-04T08:42:53.847Z,30.60
2022-12-04T08:45:21.957Z,27.33
2022-12-04T08:47:52.590Z,24.17
2022-12-04T08:50:19.354Z,30.25
2022-12-04T08:52:46.518Z,25.80
2022-12-04T08:57:44.241Z,24.17
2022-12-04T09:04:09.178Z,25.05
2022-12-04T09:06:37.802Z,25.15
2022-12-04T09:09:47.891Z,28.75
2022-12-04T09:12:15.029Z,23.73
2022-12-04T09:14:48.262Z,24.20
2022-12-04T09:17:14.842Z,26.35
2022-12-04T09:19:44.455Z,25.27
2022-12-04T09:22:13.460Z,26.63
2022-12-04T09:25:43.269Z,28.70
2022-12-04T09:28:13.636Z,26.23
2022-12-04T09:31:38.060Z,27.35
2022-12-04T09:35:01.954Z,28.10
2022-12-04T09:37:29.713Z,28.83
2022-12-04T09:39:59.326Z,25.67
2022-12-04T09:42:53.853Z,28.88
2022-12-04T09:45:26.827Z,25.20
2022-12-04T09:47:58.949Z,27.50
2022-12-04T09:50:42.836Z,24.92
2022-12-04T09:53:58.593Z,30.08
2022-12-04T09:56:28.941Z,30.30
2022-12-04T09:59:24.471Z,26.95
2022-12-04T10:02:04.515Z,25.70
2022-12-04T10:04:33.097Z,26.45
2022-12-04T10:07:46.788Z,26.52
2022-12-04T10:10:24.358Z,26.60
2022-12-04T10:12:52.146Z,27.88
2022-12-04T10:15:37.660Z,30.90
2022-12-04T10:18:07.779Z,26.67
2022-12-04T10:21:02.999Z,26.92
2022-12-04T10:23:53.046Z,22.60
2022-12-04T10:26:27.996Z,30.73
2022-12-04T10:29:04.589Z,25.25
2022-12-04T10:31:37.935Z,25.38
2022-12-04T10:34:23.044Z,27.63
2022-12-04T10:37:43.495Z,25.15
2022-12-04T10:40:21.868Z,28.00
2022-12-04T10:43:01.941Z,26.77
2022-12-04T10:45:29.366Z,27.55
2022-12-04T10:47:56.655Z,25.75
2022-12-04T10:50:26.733Z,27.05
2022-12-04T10:52:53.424Z,28.77
2022-12-04T10:55:39.863Z,25.95
2022-12-04T10:58:23.183Z,24.10
2022-12-04T11:01:28.046Z,24.88
2022-12-04T11:04:09.350Z,26.02
2022-12-04T11:06:38.758Z,26.40
2022-12-04T11:09:06.610Z,25.70
2022-12-04T11:11:36.450Z,26.80
2022-12-04T11:14:13.848Z,22.67
2022-12-04T11:16:52.370Z,26.85
2022-12-04T11:19:28.888Z,25.15
2022-12-04T11:22:08.283Z,28.27
2022-12-04T11:24:42.021Z,25.15
2022-12-04T11:27:32.633Z,25.15
2022-12-04T11:30:18.654Z,24.58
2022-12-04T11:32:49.554Z,22.75
2022-12-04T11:35:23.346Z,21.00
2022-12-04T11:38:08.436Z,23.00
2022-12-04T11:41:07.565Z,21.10
2022-12-04T11:43:39.127Z,23.83
2022-12-04T11:46:23.993Z,23.80
2022-12-04T11:48:53.995Z,21.63
2022-12-04T11:51:58.626Z,21.40
2022-12-04T11:54:32.515Z,22.08
2022-12-04T11:57:24.352Z,22.73
2022-12-04T12:00:37.952Z,22.58
2022-12-04T12:03:12.750Z,21.17
2022-12-04T12:05:39.629Z,21.55
2022-12-04T12:08:09.111Z,20.38
2022-12-04T12:10:57.943Z,20.02
2022-12-04T12:13:37.294Z,18.35
2022-12-04T12:16:29.395Z,20.83
2022-12-04T12:19:08.769Z,16.42
2022-12-04T12:22:14.306Z,18.08
2022-12-04T12:24:51.489Z,21.10
2022-12-04T12:27:39.475Z,20.25
2022-12-04T12:30:18.572Z,20.58
2022-12-04T12:33:05.574Z,20.65
2022-12-04T12:35:49.866Z,19.85
2022-12-04T12:38:47.023Z,17.40
2022-12-04T12:41:25.089Z,19.30
2022-12-04T12:44:07.741Z,17.98
2022-12-04T12:46:54.426Z,18.55
2022-12-04T12:52:08.164Z,16.13
2022-12-04T12:54:49.813Z,17.25
2022-12-04T12:57:28.070Z,17.92
2022-12-04T13:00:22.540Z,18.85
2022-12-04T13:03:24.808Z,16.55
2022-12-04T13:05:59.123Z,17.23
2022-12-04T13:08:53.173Z,15.55
2022-12-04T13:11:27.876Z,24.50
2022-12-04T13:14:03.502Z,18.38
2022-12-04T13:16:35.173Z,18.70
2022-12-04T13:19:33.686Z,19.45
2022-12-04T13:22:09.487Z,15.07
2022-12-04T13:25:18.891Z,17.83
2022-12-04T13:28:04.475Z,14.68
2022-12-04T13:30:52.704Z,14.48
2022-12-04T13:33:57.733Z,15.73
2022-12-04T13:36:33.255Z,14.88
2022-12-04T13:39:03.381Z,17.50
2022-12-04T13:41:38.197Z,16.33
2022-12-04T13:44:29.094Z,15.60
2022-12-04T13:47:01.424Z,14.00
2022-12-04T13:49:38.549Z,16.35
2022-12-04T13:52:41.647Z,12.93
2022-12-04T13:55:29.138Z,18.70
2022-12-04T13:58:01.557Z,15.65
2022-12-04T14:00:35.000Z,17.10
2022-12-04T14:03:24.356Z,16.13
2022-12-04T14:05:53.316Z,17.40
2022-12-04T14:08:21.185Z,16.48
2022-12-04T14:11:19.808Z,17.38
2022-12-04T14:13:51.611Z,16.38
2022-12-04T14:16:38.036Z,16.08
2022-12-04T14:19:24.696Z,17.27
2022-12-04T14:24:38.632Z,13.65
2022-12-04T14:27:39.317Z,13.13
2022-12-04T14:30:54.648Z,14.05
2022-12-04T14:33:24.261Z,13.40
2022-12-04T14:39:53.547Z,16.65
2022-12-04T14:42:47.131Z,19.02
2022-12-04T14:45:56.375Z,15.65
2022-12-04T14:48:43.045Z,16.05
2022-12-04T14:51:29.913Z,17.95
2022-12-04T14:54:04.664Z,17.83
2022-12-04T14:56:32.823Z,18.60
2022-12-04T14:59:09.563Z,16.10
2022-12-04T15:01:39.025Z,16.05
2022-12-04T15:04:34.671Z,16.88
2022-12-04T15:07:13.211Z,15.80
2022-12-04T15:10:10.003Z,15.23
2022-12-04T15:12:53.149Z,14.50
2022-12-04T15:15:29.478Z,16.73
2022-12-04T15:18:19.855Z,17.00
2022-12-04T15:20:49.254Z,17.60
2022-12-04T15:23:48.041Z,16.05
2022-12-04T15:26:49.064Z,18.50
2022-12-04T15:32:39.949Z,15.35
2022-12-04T15:35:33.209Z,14.07
2022-12-04T15:38:00.366Z,17.33
2022-12-04T15:40:39.201Z,17.65
2022-12-04T15:43:19.630Z,17.20
2022-12-04T15:45:49.703Z,16.55
2022-12-04T15:48:32.048Z,15.95
2022-12-04T15:51:04.454Z,18.63
2022-12-04T15:54:08.020Z,15.95
2022-12-04T15:56:34.615Z,23.85
2022-12-04T15:59:19.126Z,16.65
2022-12-04T16:01:48.471Z,16.40
2022-12-04T16:04:23.199Z,17.65
2022-12-04T16:06:53.805Z,15.73
2022-12-04T16:09:34.327Z,17.33
2022-12-04T16:12:18.681Z,19.02
2022-12-04T16:14:52.197Z,14.43
2022-12-04T16:17:31.550Z,17.30
2022-12-04T16:19:59.617Z,16.95
2022-12-04T16:22:33.502Z,17.30
2022-12-04T16:25:00.692Z,19.13
2022-12-04T16:27:53.944Z,17.13
2022-12-04T16:30:21.454Z,16.73
2022-12-04T16:32:49.231Z,14.77
2022-12-04T16:35:19.080Z,18.45
2022-12-04T16:37:46.448Z,16.80
2022-12-04T16:40:25.033Z,17.30
2022-12-04T16:43:00.302Z,17.67
2022-12-04T16:45:38.697Z,19.42
2022-12-04T16:48:08.372Z,18.90
2022-12-04T16:50:37.884Z,17.45
2022-12-04T16:53:08.126Z,18.17
2022-12-04T16:55:39.734Z,17.23
2022-12-04T16:58:14.379Z,18.23
2022-12-04T17:00:44.621Z,16.70
2022-12-04T17:03:29.451Z,18.08
2022-12-04T17:06:03.149Z,18.70
2022-12-04T17:08:47.209Z,17.77
2022-12-04T17:11:23.996Z,19.52
2022-12-04T17:13:51.438Z,17.98
2022-12-04T17:16:23.148Z,18.70
2022-12-04T17:18:54.688Z,17.73
2022-12-04T17:21:24.377Z,18.65
2022-12-04T17:23:59.689Z,18.15
2022-12-04T17:26:35.002Z,19.67
2022-12-04T17:29:04.375Z,19.27
2022-12-04T17:31:33.188Z,18.75
2022-12-04T17:33:59.964Z,17.50
2022-12-04T17:36:29.173Z,18.75
2022-12-04T17:39:33.995Z,17.02
2022-12-04T17:42:04.842Z,16.58
2022-12-04T17:47:48.177Z,16.75
2022-12-04T17:50:14.949Z,17.95
2022-12-04T17:52:51.814Z,18.33
2022-12-04T17:55:38.583Z,18.63
2022-12-04T17:58:07.744Z,18.55
2022-12-04T18:00:34.509Z,18.85
2022-12-04T18:03:04.379Z,20.00
2022-12-04T18:05:37.659Z,17.67
2022-12-04T18:08:04.430Z,19.52
2022-12-04T18:10:32.962Z,19.17
2022-12-04T18:13:03.090Z,24.35
2022-12-04T18:15:52.340Z,24.30
2022-12-04T18:18:23.300Z,19.75
2022-12-04T18:21:12.367Z,24.85
2022-12-04T18:23:47.476Z,20.33
2022-12-04T18:26:28.850Z,23.30
2022-12-04T18:28:56.953Z,20.67
2022-12-04T18:31:26.503Z,23.77
2022-12-04T18:33:58.861Z,21.60
2022-12-04T18:36:29.544Z,21.40
2022-12-04T18:39:04.710Z,23.23
2022-12-04T18:41:32.981Z,22.70
2022-12-04T18:43:59.541Z,19.83
2022-12-04T18:46:29.153Z,24.65
2022-12-04T18:48:58.879Z,21.67
2022-12-04T18:51:48.967Z,28.95
2022-12-04T18:54:28.212Z,21.50
2022-12-04T18:56:59.762Z,23.17
2022-12-04T18:59:43.287Z,20.47
2022-12-04T19:02:13.851Z,22.98
2022-12-04T19:05:08.095Z,24.20
2022-12-04T19:07:34.719Z,21.15
2022-12-04T19:10:21.610Z,24.65
2022-12-04T19:13:19.990Z,23.70
2022-12-04T19:15:52.983Z,24.92
2022-12-04T19:18:33.888Z,23.55
2022-12-04T19:21:28.888Z,21.30
2022-12-04T19:23:59.734Z,20.88
2022-12-04T19:26:56.549Z,23.15
2022-12-04T19:29:24.356Z,20.20
2022-12-04T19:31:56.217Z,19.00
2022-12-04T19:42:44.307Z,21.58
2022-12-04T19:45:20.303Z,21.55
2022-12-04T19:47:49.542Z,21.60
2022-12-04T19:50:17.948Z,19.38
2022-12-04T19:52:53.402Z,19.63
2022-12-04T19:55:24.458Z,18.88
2022-12-04T19:57:52.947Z,23.15
2022-12-04T20:00:39.504Z,22.75
2022-12-04T20:05:44.870Z,18.98
2022-12-04T20:10:39.116Z,21.48
2022-12-04T20:13:08.391Z,20.42
2022-12-04T20:15:39.427Z,19.52
2022-12-04T20:18:13.112Z,18.30
2022-12-04T20:20:48.910Z,20.15
2022-12-04T20:23:19.611Z,19.88
2022-12-04T20:25:58.662Z,19.92
2022-12-04T20:28:29.685Z,19.38
2022-12-04T20:30:59.950Z,19.13
2022-12-04T20:34:27.660Z,21.75
2022-12-04T20:37:03.391Z,18.92
2022-12-04T20:40:37.940Z,17.42
2022-12-04T20:43:40.307Z,18.23
2022-12-04T20:47:19.832Z,18.15
2022-12-04T20:49:49.468Z,19.42
2022-12-04T20:52:46.055Z,17.25
2022-12-04T20:55:19.985Z,19.05
2022-12-04T20:58:12.512Z,20.10
2022-12-04T21:03:54.472Z,19.88
2022-12-04T21:06:34.923Z,21.25
2022-12-04T21:09:19.572Z,21.40
2022-12-04T21:11:54.329Z,18.48
2022-12-04T21:14:53.380Z,18.58
2022-12-04T21:17:24.116Z,21.02
2022-12-04T21:20:07.706Z,17.17
2022-12-04T21:26:19.454Z,20.77
2022-12-04T21:28:53.735Z,20.63
2022-12-04T21:31:24.338Z,22.88
2022-12-04T21:33:58.027Z,20.13
2022-12-04T21:37:34.011Z,18.05
2022-12-04T21:42:33.207Z,16.50
2022-12-04T21:45:03.257Z,19.98
2022-12-04T21:47:31.785Z,19.35
2022-12-04T21:49:59.771Z,21.90
2022-12-04T21:52:29.451Z,18.38
2022-12-04T21:54:58.800Z,18.17
2022-12-04T21:57:29.487Z,20.92
2022-12-04T21:59:57.993Z,18.05
2022-12-04T22:02:25.432Z,19.33
2022-12-04T22:04:54.525Z,17.55
2022-12-04T22:07:22.608Z,19.83
2022-12-04T22:09:49.614Z,19.17
2022-12-04T22:12:49.108Z,19.85
2022-12-04T22:15:09.695Z,19.20
2022-12-04T22:17:39.687Z,19.23
2022-12-04T22:20:08.824Z,20.17
2022-12-04T22:22:37.108Z,17.95
2022-12-04T22:25:04.967Z,19.25
2022-12-04T22:27:33.349Z,17.95
2022-12-04T22:30:01.990Z,17.48
2022-12-04T22:32:29.622Z,17.58
2022-12-04T22:34:58.963Z,17.77
2022-12-04T22:37:26.639Z,17.60
2022-12-04T22:39:53.358Z,18.70
2022-12-04T22:42:23.029Z,16.65
2022-12-04T22:44:51.228Z,15.52
2022-12-04T22:47:19.663Z,20.10
2022-12-04T22:49:49.532Z,21.35
2022-12-04T22:52:18.501Z,16.83
2022-12-04T22:54:46.474Z,17.67
2022-12-04T22:57:14.055Z,17.73
2022-12-04T22:59:41.836Z,18.55
2022-12-04T23:02:09.596Z,16.42
2022-12-04T23:07:07.189Z,18.73
2022-12-04T23:09:34.352Z,18.17
2022-12-04T23:12:04.723Z,15.05
2022-12-04T23:14:38.229Z,17.90
2022-12-04T23:17:04.804Z,15.68
2022-12-04T23:19:34.191Z,14.88
2022-12-04T23:22:03.508Z,15.20
2022-12-04T23:24:32.846Z,16.15
2022-12-04T23:26:59.418Z,17.10
2022-12-04T23:29:51.559Z,17.02
2022-12-04T23:32:18.600Z,14.32
2022-12-04T23:34:47.087Z,15.65
2022-12-04T23:37:14.664Z,16.70
2022-12-04T23:39:43.145Z,15.18
2022-12-04T23:42:09.730Z,15.15
2022-12-04T23:44:38.734Z,14.77
2022-12-04T23:47:06.858Z,14.88
2022-12-04T23:49:33.819Z,13.75
2022-12-04T23:52:01.285Z,12.70
2022-12-04T23:54:31.771Z,14.52
2022-12-04T23:56:58.661Z,14.57
2022-12-04T23:59:26.774Z,14.30
